Time;durP1;ratioP1;P1;durP2;ratioP2;P2;SDS_P1;SDS_P2;PMS_P1;PMS_P2;Temp;Humidity;BMP_temperature;BMP_pressure;BME280_temperature;BME280_humidity;BME280_pressure;Samples;Min_cycle;Max_cycle;Signal;HPM_P1;HPM_P2
2023/09/15 00:02:02;;;;;;;4.50;4.10;;;;;;;;;;5097061;28;20543;-65
2023/09/15 00:04:30;;;;;;;4.68;4.20;;;;;;;;;;5097279;28;20206;-65
2023/09/15 00:06:57;;;;;;;4.28;3.97;;;;;;;;;;5097043;28;20294;-65
2023/09/15 00:09:25;;;;;;;4.20;3.90;;;;;;;;;;5097307;28;20212;-65
2023/09/15 00:11:54;;;;;;;4.60;4.28;;;;;;;;;;5097189;28;20290;-65
2023/09/15 00:14:23;;;;;;;4.97;4.57;;;;;;;;;;5097018;28;20203;-65
2023/09/15 00:16:50;;;;;;;4.80;4.50;;;;;;;;;;5096543;28;20573;-65
2023/09/15 00:19:18;;;;;;;4.97;4.57;;;;;;;;;;5097378;28;20243;-65
2023/09/15 00:21:47;;;;;;;5.13;4.72;;;;;;;;;;5098498;28;20273;-65
2023/09/15 00:24:14;;;;;;;4.93;4.53;;;;;;;;;;5100429;28;20239;-65
2023/09/15 00:26:43;;;;;;;5.00;4.60;;;;;;;;;;5100160;28;20203;-65
2023/09/15 00:29:12;;;;;;;5.00;4.60;;;;;;;;;;5100096;28;20204;-65
2023/09/15 00:31:39;;;;;;;5.57;5.07;;;;;;;;;;5100478;28;20222;-65
2023/09/15 00:34:07;;;;;;;5.57;5.07;;;;;;;;;;5100548;28;20203;-65
2023/09/15 00:36:34;;;;;;;5.18;4.78;;;;;;;;;;5100084;28;20272;-65
2023/09/15 00:39:03;;;;;;;6.22;5.68;;;;;;;;;;5099995;28;20326;-65
2023/09/15 00:41:30;;;;;;;5.50;5.10;;;;;;;;;;5099981;28;20241;-65
2023/09/15 00:43:58;;;;;;;6.22;5.63;;;;;;;;;;5099936;28;20684;-65
2023/09/15 00:46:27;;;;;;;5.85;5.35;;;;;;;;;;5100178;28;20247;-65
2023/09/15 00:48:55;;;;;;;5.78;5.28;;;;;;;;;;5100021;28;20204;-65
2023/09/15 00:51:23;;;;;;;6.05;5.50;;;;;;;;;;5100180;28;20231;-65
2023/09/15 00:53:50;;;;;;;5.90;5.43;;;;;;;;;;5099985;28;20269;-65
2023/09/15 00:56:18;;;;;;;6.25;5.75;;;;;;;;;;5099666;28;20217;-65
2023/09/15 00:58:46;;;;;;;5.43;4.93;;;;;;;;;;5099830;28;20697;-65
2023/09/15 01:01:16;;;;;;;5.93;5.43;;;;;;;;;;5099522;28;20223;-65
2023/09/15 01:03:46;;;;;;;5.50;5.10;;;;;;;;;;5099784;28;20203;-65
2023/09/15 01:06:14;;;;;;;5.75;5.25;;;;;;;;;;5099805;28;20204;-65
2023/09/15 01:08:42;;;;;;;6.10;5.60;;;;;;;;;;5099546;28;20211;-65
2023/09/15 01:11:10;;;;;;;6.20;5.70;;;;;;;;;;5099800;28;20226;-65
2023/09/15 01:13:37;;;;;;;6.10;5.47;;;;;;;;;;5099423;28;20302;-65
2023/09/15 01:16:08;;;;;;;6.13;5.63;;;;;;;;;;5099686;28;20204;-65
2023/09/15 01:18:42;;;;;;;6.13;5.63;;;;;;;;;;5099265;28;20235;-65
2023/09/15 01:21:21;;;;;;;6.00;5.50;;;;;;;;;;5099549;28;20223;-65
2023/09/15 01:24:09;;;;;;;6.05;5.57;;;;;;;;;;5099386;28;20235;-65
2023/09/15 01:26:46;;;;;;;6.32;5.82;;;;;;;;;;5091921;28;20497;-65
2023/09/15 01:29:37;;;;;;;6.05;5.47;;;;;;;;;;5099383;28;20214;-65
2023/09/15 01:32:07;;;;;;;6.20;5.70;;;;;;;;;;5093158;28;20200;-65
2023/09/15 01:34:37;;;;;;;6.25;5.75;;;;;;;;;;5099191;28;20207;-65
2023/09/15 01:37:04;;;;;;;5.80;5.35;;;;;;;;;;5098945;28;20215;-65
2023/09/15 01:39:32;;;;;;;6.15;5.65;;;;;;;;;;5098984;28;20262;-65
2023/09/15 01:42:00;;;;;;;5.65;5.18;;;;;;;;;;5098250;28;20293;-65
2023/09/15 01:44:27;;;;;;;6.13;5.63;;;;;;;;;;5098910;28;20493;-65
2023/09/15 01:46:55;;;;;;;5.20;4.80;;;;;;;;;;5099227;28;20207;-65
2023/09/15 01:49:26;;;;;;;5.43;5.03;;;;;;;;;;5098889;28;20203;-65
2023/09/15 01:51:54;;;;;;;5.53;5.10;;;;;;;;;;5098502;28;20219;-65
2023/09/15 01:54:22;;;;;;;5.70;5.30;;;;;;;;;;5098670;28;20210;-66
2023/09/15 01:56:50;;;;;;;5.70;5.20;;;;;;;;;;5098697;28;20306;-66
2023/09/15 01:59:17;;;;;;;5.25;4.85;;;;;;;;;;5098950;28;20195;-65
2023/09/15 02:01:44;;;;;;;5.78;5.20;;;;;;;;;;5098558;28;20766;-65
2023/09/15 02:04:11;;;;;;;5.35;4.95;;;;;;;;;;5098651;28;20287;-65
2023/09/15 02:06:40;;;;;;;5.70;5.22;;;;;;;;;;5098256;28;20290;-65
2023/09/15 02:09:07;;;;;;;5.70;5.30;;;;;;;;;;5098818;28;20214;-65
2023/09/15 02:11:35;;;;;;;5.45;5.05;;;;;;;;;;5098247;28;20588;-65
2023/09/15 02:14:02;;;;;;;5.78;5.38;;;;;;;;;;5098467;28;20286;-65
2023/09/15 02:16:30;;;;;;;5.50;5.10;;;;;;;;;;5098373;28;20208;-65
2023/09/15 02:18:57;;;;;;;6.20;5.60;;;;;;;;;;5098399;28;20628;-65
2023/09/15 02:21:25;;;;;;;5.38;4.97;;;;;;;;;;5098279;28;20231;-65
2023/09/15 02:23:54;;;;;;;6.05;5.55;;;;;;;;;;5097800;28;20295;-65
2023/09/15 02:26:22;;;;;;;5.40;5.00;;;;;;;;;;5097592;28;20242;-65
2023/09/15 02:28:49;;;;;;;6.40;5.90;;;;;;;;;;5097889;28;20579;-65
2023/09/15 02:31:17;;;;;;;5.88;5.38;;;;;;;;;;5098141;28;20200;-65
2023/09/15 02:33:45;;;;;;;4.97;4.57;;;;;;;;;;5097833;28;20214;-65
2023/09/15 02:36:12;;;;;;;5.70;5.30;;;;;;;;;;5097862;28;20215;-65
2023/09/15 02:38:40;;;;;;;5.22;4.82;;;;;;;;;;5097503;28;20599;-65
2023/09/15 02:41:08;;;;;;;4.70;4.40;;;;;;;;;;5097528;28;20318;-65
2023/09/15 02:43:36;;;;;;;4.75;4.45;;;;;;;;;;5097079;28;20302;-65
2023/09/15 02:46:04;;;;;;;5.05;4.65;;;;;;;;;;5097680;28;20536;-65
2023/09/15 02:48:31;;;;;;;5.00;4.60;;;;;;;;;;5097008;28;20203;-65
2023/09/15 02:51:00;;;;;;;4.78;4.40;;;;;;;;;;5096531;28;20200;-65
2023/09/15 02:53:27;;;;;;;5.28;4.88;;;;;;;;;;5097458;28;20567;-65
2023/09/15 02:55:59;;;;;;;4.93;4.55;;;;;;;;;;5096969;28;20266;-65
2023/09/15 02:58:28;;;;;;;4.57;4.28;;;;;;;;;;5096648;28;20238;-65
2023/09/15 03:00:56;;;;;;;4.93;4.55;;;;;;;;;;5097417;28;20224;-65
2023/09/15 03:03:24;;;;;;;4.50;4.20;;;;;;;;;;5096860;28;20250;-65
2023/09/15 03:05:52;;;;;;;4.53;4.20;;;;;;;;;;5097032;28;20244;-65
2023/09/15 03:08:21;;;;;;;4.55;4.25;;;;;;;;;;5096782;28;20231;-65
2023/09/15 03:10:48;;;;;;;4.18;3.88;;;;;;;;;;5097427;28;20626;-65
2023/09/15 03:13:16;;;;;;;4.40;4.10;;;;;;;;;;5097117;28;20211;-65
2023/09/15 03:15:45;;;;;;;4.50;4.20;;;;;;;;;;5097501;28;20301;-65
2023/09/15 03:18:13;;;;;;;3.83;3.53;;;;;;;;;;5097362;28;20203;-65
2023/09/15 03:20:40;;;;;;;4.22;3.92;;;;;;;;;;5096422;28;20671;-65
2023/09/15 03:23:07;;;;;;;4.28;3.97;;;;;;;;;;5096428;28;20203;-65
2023/09/15 03:25:35;;;;;;;4.50;4.20;;;;;;;;;;5096762;28;20203;-65
2023/09/15 03:28:03;;;;;;;4.20;3.90;;;;;;;;;;5096952;28;20203;-65
2023/09/15 03:30:30;;;;;;;3.97;3.72;;;;;;;;;;5096806;28;20599;-65
2023/09/15 03:32:59;;;;;;;4.22;3.92;;;;;;;;;;5097362;28;20313;-65
2023/09/15 03:35:26;;;;;;;4.22;3.92;;;;;;;;;;5096546;28;20230;-65
2023/09/15 03:37:54;;;;;;;4.20;3.90;;;;;;;;;;5096675;28;20490;-65
2023/09/15 03:40:22;;;;;;;3.90;3.70;;;;;;;;;;5096828;28;20253;-65
2023/09/15 03:42:49;;;;;;;3.63;3.42;;;;;;;;;;5096981;28;20267;-65
2023/09/15 03:45:16;;;;;;;3.70;3.45;;;;;;;;;;5096671;28;20210;-65
2023/09/15 03:47:44;;;;;;;3.50;3.30;;;;;;;;;;5096877;28;20584;-65
2023/09/15 03:50:19;;;;;;;3.72;3.42;;;;;;;;;;5095805;28;20243;-65
2023/09/15 03:52:47;;;;;;;3.22;3.03;;;;;;;;;;5096255;28;20305;-65
2023/09/15 03:55:17;;;;;;;3.28;3.05;;;;;;;;;;5096254;28;20231;-65
2023/09/15 03:57:45;;;;;;;3.13;2.92;;;;;;;;;;5099973;28;20204;-65
2023/09/15 04:00:17;;;;;;;3.40;3.20;;;;;;;;;;5099923;28;20203;-65
2023/09/15 04:02:44;;;;;;;3.10;2.90;;;;;;;;;;5100301;28;20580;-65
2023/09/15 04:05:14;;;;;;;3.85;3.50;;;;;;;;;;5099986;28;20208;-65
2023/09/15 04:07:42;;;;;;;3.90;3.60;;;;;;;;;;5100111;28;20253;-65
2023/09/15 04:10:10;;;;;;;3.60;3.40;;;;;;;;;;5099741;28;20203;-65
2023/09/15 04:12:37;;;;;;;4.03;3.72;;;;;;;;;;5099738;28;20643;-65
2023/09/15 04:15:05;;;;;;;4.25;3.95;;;;;;;;;;5100315;28;20290;-65
2023/09/15 04:17:33;;;;;;;4.00;3.70;;;;;;;;;;5099356;28;20625;-65
2023/09/15 04:20:00;;;;;;;3.90;3.60;;;;;;;;;;5099771;28;20511;-65
2023/09/15 04:22:29;;;;;;;4.18;3.88;;;;;;;;;;5100019;28;20263;-65
2023/09/15 04:24:57;;;;;;;4.50;4.20;;;;;;;;;;5099102;28;20568;-65
2023/09/15 04:27:24;;;;;;;4.10;3.80;;;;;;;;;;5099493;28;20279;-65
2023/09/15 04:29:52;;;;;;;3.70;3.50;;;;;;;;;;5099201;28;20284;-65
2023/09/15 04:32:20;;;;;;;4.15;3.85;;;;;;;;;;5098786;28;20203;-65
2023/09/15 04:34:48;;;;;;;3.92;3.63;;;;;;;;;;5098951;28;20493;-65
2023/09/15 04:37:15;;;;;;;4.03;3.75;;;;;;;;;;5098692;28;20246;-65
2023/09/15 04:39:44;;;;;;;4.10;3.80;;;;;;;;;;5099209;28;20265;-65
2023/09/15 04:42:12;;;;;;;3.88;3.60;;;;;;;;;;5098186;28;20809;-66
2023/09/15 04:44:39;;;;;;;4.20;3.90;;;;;;;;;;5098068;28;20215;-65
2023/09/15 04:47:07;;;;;;;4.40;4.10;;;;;;;;;;5098429;28;20294;-65
2023/09/15 04:49:35;;;;;;;4.03;3.72;;;;;;;;;;5097351;28;20504;-65
2023/09/15 04:52:03;;;;;;;3.90;3.65;;;;;;;;;;5097251;28;20204;-65
2023/09/15 04:54:31;;;;;;;4.00;3.70;;;;;;;;;;5097132;28;20226;-65
2023/09/15 04:57:00;;;;;;;4.35;4.05;;;;;;;;;;5097174;28;20311;-65
2023/09/15 04:59:27;;;;;;;3.95;3.65;;;;;;;;;;5097515;28;20300;-65
2023/09/15 05:01:55;;;;;;;4.28;3.97;;;;;;;;;;5096435;28;20569;-65
2023/09/15 05:04:23;;;;;;;4.28;3.97;;;;;;;;;;5096537;28;20253;-65
2023/09/15 05:06:50;;;;;;;3.83;3.60;;;;;;;;;;5095218;28;20210;-65
2023/09/15 05:09:20;;;;;;;4.38;4.03;;;;;;;;;;5095670;28;20195;-65
2023/09/15 05:11:48;;;;;;;3.80;3.50;;;;;;;;;;5093755;28;20212;-65
2023/09/15 05:14:17;;;;;;;4.20;3.90;;;;;;;;;;5096073;28;20306;-65
2023/09/15 05:16:44;;;;;;;3.60;3.30;;;;;;;;;;5096201;28;20196;-65
2023/09/15 05:19:12;;;;;;;4.18;3.88;;;;;;;;;;5095742;28;20204;-65
2023/09/15 05:21:39;;;;;;;4.30;3.90;;;;;;;;;;5095603;28;20707;-65
2023/09/15 05:24:07;;;;;;;3.97;3.67;;;;;;;;;;5096364;28;20245;-65
2023/09/15 05:26:35;;;;;;;4.00;3.70;;;;;;;;;;5096283;28;20290;-65
2023/09/15 05:29:03;;;;;;;3.70;3.42;;;;;;;;;;5094650;28;20208;-65
2023/09/15 05:31:32;;;;;;;3.70;3.50;;;;;;;;;;5079098;28;20479;-65
2023/09/15 05:33:59;;;;;;;3.80;3.60;;;;;;;;;;5094175;28;20729;-65
2023/09/15 05:36:27;;;;;;;3.42;3.22;;;;;;;;;;5094922;28;20227;-65
2023/09/15 05:38:54;;;;;;;3.30;3.10;;;;;;;;;;5094571;28;20505;-65
2023/09/15 05:41:21;;;;;;;3.60;3.40;;;;;;;;;;5093460;28;20404;-65
2023/09/15 05:43:49;;;;;;;3.63;3.42;;;;;;;;;;5093894;28;20306;-65
2023/09/15 05:46:16;;;;;;;3.60;3.30;;;;;;;;;;5093133;28;20206;-65
2023/09/15 05:48:45;;;;;;;3.85;3.58;;;;;;;;;;5093985;28;20604;-65
2023/09/15 05:51:13;;;;;;;3.30;3.10;;;;;;;;;;5093454;28;20214;-65
2023/09/15 05:53:40;;;;;;;3.17;2.97;;;;;;;;;;5094358;28;20615;-65
2023/09/15 05:56:08;;;;;;;3.33;2.97;;;;;;;;;;5095922;28;20239;-65
2023/09/15 05:58:35;;;;;;;3.60;3.30;;;;;;;;;;5095304;28;20227;-65
2023/09/15 06:01:03;;;;;;;3.20;3.00;;;;;;;;;;5094875;28;20294;-65
2023/09/15 06:03:30;;;;;;;3.47;3.25;;;;;;;;;;5094039;28;20319;-65
2023/09/15 06:06:00;;;;;;;3.47;3.17;;;;;;;;;;5094513;28;20230;-65
2023/09/15 06:08:27;;;;;;;3.40;3.10;;;;;;;;;;5095362;28;20246;-65
2023/09/15 06:10:55;;;;;;;3.30;3.10;;;;;;;;;;5096338;28;20556;-65
2023/09/15 06:13:23;;;;;;;3.13;2.92;;;;;;;;;;5095171;28;20235;-65
2023/09/15 06:15:51;;;;;;;3.15;2.85;;;;;;;;;;5094510;28;20212;-65
2023/09/15 06:18:19;;;;;;;3.17;2.97;;;;;;;;;;5094686;28;20211;-65
2023/09/15 06:20:46;;;;;;;2.90;2.70;;;;;;;;;;5094475;28;20218;-65
2023/09/15 06:23:15;;;;;;;3.05;2.85;;;;;;;;;;5095049;28;20220;-65
2023/09/15 06:25:46;;;;;;;3.20;2.90;;;;;;;;;;5095465;28;20204;-65
2023/09/15 06:28:13;;;;;;;3.20;3.00;;;;;;;;;;5094433;28;20272;-65
2023/09/15 06:30:41;;;;;;;3.35;3.05;;;;;;;;;;5095398;28;20299;-65
2023/09/15 06:33:08;;;;;;;3.13;2.92;;;;;;;;;;5095889;28;20234;-65
2023/09/15 06:35:36;;;;;;;2.90;2.67;;;;;;;;;;5095361;28;20204;-65
2023/09/15 06:38:06;;;;;;;2.83;2.63;;;;;;;;;;5095063;28;20650;-65
2023/09/15 06:40:35;;;;;;;3.20;3.00;;;;;;;;;;5095290;28;20320;-65
2023/09/15 06:43:04;;;;;;;3.28;2.97;;;;;;;;;;5096211;28;20267;-65
2023/09/15 06:45:32;;;;;;;3.20;3.00;;;;;;;;;;5094903;28;20308;-65
2023/09/15 06:48:00;;;;;;;3.10;2.90;;;;;;;;;;5095296;28;20196;-65
2023/09/15 06:50:27;;;;;;;3.50;3.22;;;;;;;;;;5095359;28;20211;-65
2023/09/15 06:52:55;;;;;;;3.17;2.88;;;;;;;;;;5095443;28;20210;-65
2023/09/15 06:55:22;;;;;;;2.83;2.63;;;;;;;;;;5094759;28;20209;-65
2023/09/15 06:57:51;;;;;;;2.90;2.70;;;;;;;;;;5094025;28;20575;-65
2023/09/15 07:00:19;;;;;;;3.22;2.42;;;;;;;;;;5094249;28;20479;-65
2023/09/15 07:02:46;;;;;;;2.92;2.72;;;;;;;;;;5094325;28;20223;-65
2023/09/15 07:05:14;;;;;;;2.65;2.45;;;;;;;;;;5093018;28;20231;-65
2023/09/15 07:07:41;;;;;;;2.70;2.50;;;;;;;;;;5093719;28;20302;-65
2023/09/15 07:10:09;;;;;;;2.55;2.35;;;;;;;;;;5095109;28;20234;-65
2023/09/15 07:12:37;;;;;;;2.55;2.35;;;;;;;;;;5094720;28;20199;-65
2023/09/15 07:15:06;;;;;;;3.03;2.83;;;;;;;;;;5094411;28;20294;-65
2023/09/15 07:17:34;;;;;;;2.70;2.50;;;;;;;;;;5092101;28;20273;-65
2023/09/15 07:20:01;;;;;;;2.75;2.55;;;;;;;;;;5073928;28;20649;-65
2023/09/15 07:22:29;;;;;;;2.78;2.58;;;;;;;;;;5074593;28;20228;-65
2023/09/15 07:24:56;;;;;;;2.70;2.50;;;;;;;;;;5074823;28;20321;-65
2023/09/15 07:27:24;;;;;;;2.92;2.72;;;;;;;;;;5074452;28;20282;-65
2023/09/15 07:29:52;;;;;;;2.47;2.38;;;;;;;;;;5075847;28;20682;-65
2023/09/15 07:32:21;;;;;;;2.70;2.50;;;;;;;;;;5079180;28;20210;-65
2023/09/15 07:34:49;;;;;;;3.05;2.85;;;;;;;;;;5095207;28;20594;-65
2023/09/15 07:37:16;;;;;;;3.00;2.80;;;;;;;;;;5098849;28;20300;-65
2023/09/15 07:39:44;;;;;;;2.50;2.30;;;;;;;;;;5099061;28;20265;-65
2023/09/15 07:42:13;;;;;;;3.55;3.13;;;;;;;;;;5094250;28;20319;-65
2023/09/15 07:44:42;;;;;;;3.10;2.90;;;;;;;;;;5078588;28;20349;-64
2023/09/15 07:47:12;;;;;;;3.47;3.28;;;;;;;;;;5078884;28;20219;-64
2023/09/15 07:49:41;;;;;;;2.83;2.63;;;;;;;;;;5079186;28;20565;-64
2023/09/15 07:52:08;;;;;;;5.60;3.63;;;;;;;;;;5084848;28;20274;-64
2023/09/15 07:54:40;;;;;;;3.42;3.05;;;;;;;;;;5092092;28;20456;-64
2023/09/15 07:57:07;;;;;;;4.47;3.15;;;;;;;;;;5097832;28;20314;-64
2023/09/15 07:59:35;;;;;;;3.33;2.97;;;;;;;;;;5098574;28;20571;-64
2023/09/15 08:02:04;;;;;;;3.00;2.80;;;;;;;;;;5097882;28;20239;-64
2023/09/15 08:04:31;;;;;;;2.80;2.60;;;;;;;;;;5097732;28;20199;-64
2023/09/15 08:07:01;;;;;;;2.75;2.53;;;;;;;;;;5098292;28;20654;-64
2023/09/15 08:09:28;;;;;;;3.50;3.00;;;;;;;;;;5098568;28;20235;-64
2023/09/15 08:11:59;;;;;;;3.58;3.22;;;;;;;;;;5098517;28;20204;-64
2023/09/15 08:14:27;;;;;;;2.80;2.60;;;;;;;;;;5098715;28;20217;-64
2023/09/15 08:16:55;;;;;;;2.72;2.53;;;;;;;;;;5098291;28;20239;-64
2023/09/15 08:19:22;;;;;;;3.13;2.88;;;;;;;;;;5097900;28;20587;-64
2023/09/15 08:21:50;;;;;;;2.60;2.40;;;;;;;;;;5098266;28;20290;-64
2023/09/15 08:24:20;;;;;;;2.90;2.60;;;;;;;;;;5097969;28;20298;-64
2023/09/15 08:26:47;;;;;;;2.63;2.42;;;;;;;;;;5098788;28;20583;-64
2023/09/15 10:13:58;;;;;;;6.82;3.58;;;;;;;;;;5153983;27;20459;-67
2023/09/15 10:16:26;;;;;;;8.95;3.50;;;;;;;;;;5131923;28;20259;-67
2023/09/15 10:18:53;;;;;;;6.95;3.70;;;;;;;;;;5132418;28;20212;-67
2023/09/15 10:21:21;;;;;;;4.32;3.17;;;;;;;;;;5132362;28;20202;-67
2023/09/15 10:23:50;;;;;;;6.88;3.40;;;;;;;;;;5132549;28;20249;-67
2023/09/15 10:26:17;;;;;;;5.60;3.40;;;;;;;;;;5131808;28;20296;-67
2023/09/15 10:28:49;;;;;;;3.45;3.15;;;;;;;;;;5131869;28;20310;-67
2023/09/15 10:31:18;;;;;;;4.15;3.35;;;;;;;;;;5130616;28;20279;-67
2023/09/15 10:33:47;;;;;;;3.40;2.97;;;;;;;;;;5130976;28;20476;-66
2023/09/15 10:36:16;;;;;;;3.75;3.05;;;;;;;;;;5131590;28;20735;-67
2023/09/15 10:38:45;;;;;;;3.67;3.38;;;;;;;;;;5130820;28;20237;-67
2023/09/15 10:41:12;;;;;;;3.40;3.10;;;;;;;;;;5131619;28;20617;-66
2023/09/15 10:43:51;;;;;;;3.55;3.25;;;;;;;;;;5131969;28;20237;-67
2023/09/15 10:46:21;;;;;;;3.78;3.47;;;;;;;;;;5132219;28;20460;-67
2023/09/15 10:48:51;;;;;;;3.40;3.10;;;;;;;;;;5132004;28;20203;-70
2023/09/15 10:51:19;;;;;;;4.35;2.97;;;;;;;;;;5131180;28;20232;-67
2023/09/15 10:53:48;;;;;;;3.72;3.42;;;;;;;;;;5131188;28;20210;-66
2023/09/15 10:56:16;;;;;;;3.47;3.17;;;;;;;;;;5131680;28;20306;-67
2023/09/15 10:58:46;;;;;;;3.47;3.17;;;;;;;;;;5130299;28;20214;-67
2023/09/15 11:01:14;;;;;;;4.18;3.45;;;;;;;;;;5129863;28;20268;-67
2023/09/15 11:03:44;;;;;;;3.70;3.10;;;;;;;;;;5130822;28;20265;-67
2023/09/15 11:06:15;;;;;;;3.40;3.10;;;;;;;;;;5116654;28;20670;-67
2023/09/15 11:08:46;;;;;;;3.40;3.10;;;;;;;;;;5110236;28;20301;-67
2023/09/15 11:11:17;;;;;;;3.05;2.85;;;;;;;;;;5109335;28;20199;-67
2023/09/15 11:13:46;;;;;;;3.22;3.00;;;;;;;;;;5103580;28;20600;-67
2023/09/15 11:16:14;;;;;;;3.53;3.22;;;;;;;;;;5097401;28;20266;-67
2023/09/15 11:18:47;;;;;;;3.78;3.05;;;;;;;;;;5097056;28;20268;-67
2023/09/15 11:21:14;;;;;;;3.25;2.97;;;;;;;;;;5098215;28;20200;-67
2023/09/15 11:23:44;;;;;;;3.63;3.20;;;;;;;;;;5097090;28;20227;-67
2023/09/15 11:26:11;;;;;;;2.92;2.72;;;;;;;;;;5097738;28;20601;-66
2023/09/15 11:28:39;;;;;;;3.00;2.80;;;;;;;;;;5096983;28;20246;-67
2023/09/15 11:31:07;;;;;;;3.03;2.80;;;;;;;;;;5095482;28;20672;-68
2023/09/15 11:33:35;;;;;;;3.33;3.03;;;;;;;;;;5095942;28;20200;-67
2023/09/15 11:36:04;;;;;;;3.20;3.00;;;;;;;;;;5096177;28;20276;-66
2023/09/15 11:38:33;;;;;;;3.33;3.03;;;;;;;;;;5096730;28;20295;-66
2023/09/15 11:41:01;;;;;;;2.85;2.65;;;;;;;;;;5096891;28;20227;-66
2023/09/15 11:43:28;;;;;;;2.80;2.60;;;;;;;;;;5097392;28;20259;-66
2023/09/15 11:45:56;;;;;;;3.33;2.90;;;;;;;;;;5096411;28;20239;-66
2023/09/15 11:48:23;;;;;;;3.38;2.78;;;;;;;;;;5096900;28;20827;-66
2023/09/15 11:50:53;;;;;;;2.80;2.60;;;;;;;;;;5095617;28;20292;-66
2023/09/15 11:53:26;;;;;;;2.72;2.53;;;;;;;;;;5096012;28;20206;-67
2023/09/15 11:55:54;;;;;;;2.92;2.63;;;;;;;;;;5097154;28;20203;-67
2023/09/15 11:58:23;;;;;;;3.22;2.92;;;;;;;;;;5095490;28;20631;-67
2023/09/15 12:00:51;;;;;;;2.50;2.30;;;;;;;;;;5096360;28;20203;-67
2023/09/15 12:03:19;;;;;;;3.10;2.80;;;;;;;;;;5095936;28;20226;-67
2023/09/15 12:05:46;;;;;;;3.10;2.80;;;;;;;;;;5096231;28;20202;-67
2023/09/15 12:08:14;;;;;;;2.80;2.60;;;;;;;;;;5095616;28;20368;-67
2023/09/15 12:10:43;;;;;;;3.30;3.00;;;;;;;;;;5096097;28;20246;-67
2023/09/15 12:13:11;;;;;;;3.03;2.83;;;;;;;;;;5096103;28;20227;-67
2023/09/15 12:15:40;;;;;;;3.50;3.13;;;;;;;;;;5096268;28;20302;-69
2023/09/15 12:18:08;;;;;;;3.10;2.90;;;;;;;;;;5095756;28;20235;-67
2023/09/15 12:20:36;;;;;;;3.22;2.92;;;;;;;;;;5095347;28;20229;-67
2023/09/15 12:23:11;;;;;;;3.15;2.85;;;;;;;;;;5094719;28;20234;-67
2023/09/15 12:25:39;;;;;;;3.22;2.97;;;;;;;;;;5094119;28;20196;-67
2023/09/15 12:28:08;;;;;;;3.22;3.00;;;;;;;;;;5095296;28;20211;-67
2023/09/15 12:30:42;;;;;;;3.17;2.88;;;;;;;;;;5097140;28;20265;-67
2023/09/15 12:33:10;;;;;;;4.25;3.00;;;;;;;;;;5094960;28;20203;-67
2023/09/15 12:35:40;;;;;;;3.25;3.05;;;;;;;;;;5094931;28;20303;-67
2023/09/15 12:38:07;;;;;;;3.08;2.65;;;;;;;;;;5094210;28;20199;-67
2023/09/15 12:40:34;;;;;;;3.05;2.85;;;;;;;;;;5095017;28;20603;-67
2023/09/15 12:43:02;;;;;;;3.10;2.90;;;;;;;;;;5094253;28;20313;-67
2023/09/15 12:45:31;;;;;;;2.95;2.70;;;;;;;;;;5095291;28;20199;-67
2023/09/15 12:47:59;;;;;;;2.90;2.70;;;;;;;;;;5094664;28;20199;-67
2023/09/15 12:50:27;;;;;;;3.15;2.95;;;;;;;;;;5094548;28;20284;-67
2023/09/15 12:52:55;;;;;;;3.67;3.40;;;;;;;;;;5094183;28;20231;-66
2023/09/15 12:55:23;;;;;;;3.13;2.92;;;;;;;;;;5100356;28;20540;-67
2023/09/15 12:57:51;;;;;;;3.35;3.05;;;;;;;;;;5114737;28;20195;-66
2023/09/15 13:00:19;;;;;;;3.40;3.10;;;;;;;;;;5115085;28;20309;-66
2023/09/15 13:02:48;;;;;;;4.05;3.03;;;;;;;;;;5114970;28;20222;-67
2023/09/15 13:05:15;;;;;;;3.65;3.08;;;;;;;;;;5114109;28;20228;-67
2023/09/15 13:07:46;;;;;;;3.10;2.80;;;;;;;;;;5115325;28;20281;-67
2023/09/15 13:10:13;;;;;;;2.97;2.78;;;;;;;;;;5114878;28;20203;-67
2023/09/15 13:12:40;;;;;;;3.60;3.05;;;;;;;;;;5114790;28;20582;-67
2023/09/15 13:15:09;;;;;;;3.15;2.85;;;;;;;;;;5115597;28;20234;-66
2023/09/15 13:17:36;;;;;;;3.40;3.20;;;;;;;;;;5114940;28;20263;-67
2023/09/15 13:20:07;;;;;;;3.10;2.90;;;;;;;;;;5114526;28;20202;-67
2023/09/15 13:22:36;;;;;;;3.10;2.85;;;;;;;;;;5114687;28;20228;-67
2023/09/15 13:25:04;;;;;;;3.60;3.30;;;;;;;;;;5113820;28;20209;-66
2023/09/15 13:27:31;;;;;;;3.17;2.97;;;;;;;;;;5114368;28;20214;-67
2023/09/15 13:29:59;;;;;;;3.35;3.05;;;;;;;;;;5114827;28;20529;-67
2023/09/15 13:32:27;;;;;;;3.42;3.13;;;;;;;;;;5115648;28;20507;-67
2023/09/15 13:34:55;;;;;;;3.40;3.10;;;;;;;;;;5115189;28;20305;-67
2023/09/15 13:37:24;;;;;;;3.35;3.05;;;;;;;;;;5115092;28;20202;-67
2023/09/15 13:39:51;;;;;;;3.40;3.20;;;;;;;;;;5115159;28;20590;-67
2023/09/15 13:42:30;;;;;;;3.28;3.00;;;;;;;;;;5114514;28;20217;-67
2023/09/15 13:44:57;;;;;;;3.67;3.10;;;;;;;;;;5112793;28;20674;-66
2023/09/15 13:47:25;;;;;;;3.30;3.03;;;;;;;;;;5114378;28;20199;-67
2023/09/15 13:49:52;;;;;;;3.33;3.13;;;;;;;;;;5115423;28;20203;-67
2023/09/15 13:52:20;;;;;;;3.58;3.30;;;;;;;;;;5115017;28;20233;-67
2023/09/15 13:54:49;;;;;;;3.22;2.95;;;;;;;;;;5113822;28;20288;-66
2023/09/15 13:57:16;;;;;;;3.20;3.00;;;;;;;;;;5114904;28;20565;-67
2023/09/15 13:59:44;;;;;;;3.13;2.90;;;;;;;;;;5114663;28;20281;-67
2023/09/15 14:02:11;;;;;;;3.08;2.78;;;;;;;;;;5114763;28;21273;-66
2023/09/15 14:04:39;;;;;;;3.58;3.28;;;;;;;;;;5113811;28;20222;-66
2023/09/15 14:07:07;;;;;;;3.30;3.00;;;;;;;;;;5114865;28;20211;-66
2023/09/15 14:09:36;;;;;;;3.38;3.10;;;;;;;;;;5114100;28;20260;-66
2023/09/15 14:12:05;;;;;;;3.15;2.88;;;;;;;;;;5114560;28;20289;-66
2023/09/15 14:14:32;;;;;;;3.25;2.92;;;;;;;;;;5114503;28;20323;-66
2023/09/15 14:17:00;;;;;;;3.35;3.05;;;;;;;;;;5114401;28;20203;-66
2023/09/15 14:19:27;;;;;;;3.17;2.97;;;;;;;;;;5114614;28;20259;-66
2023/09/15 14:21:55;;;;;;;3.17;2.88;;;;;;;;;;5114063;28;20230;-66
2023/09/15 14:24:23;;;;;;;3.40;3.10;;;;;;;;;;5115258;28;20255;-66
2023/09/15 14:26:50;;;;;;;3.20;2.90;;;;;;;;;;5115060;28;20206;-66
2023/09/15 14:29:19;;;;;;;3.75;3.10;;;;;;;;;;5114940;28;20203;-66
2023/09/15 14:31:47;;;;;;;3.50;3.20;;;;;;;;;;5114318;28;20213;-66
2023/09/15 14:34:15;;;;;;;2.95;2.75;;;;;;;;;;5114234;28;20244;-66
2023/09/15 14:36:42;;;;;;;3.20;3.00;;;;;;;;;;5113793;28;20203;-66
2023/09/15 14:39:09;;;;;;;2.97;2.78;;;;;;;;;;5114070;28;20310;-66
2023/09/15 14:41:38;;;;;;;3.15;2.95;;;;;;;;;;5114404;28;20576;-67
2023/09/15 14:44:07;;;;;;;3.35;3.15;;;;;;;;;;5113670;28;20702;-66
2023/09/15 14:46:36;;;;;;;3.22;3.03;;;;;;;;;;5113335;28;20199;-66
2023/09/15 14:49:04;;;;;;;3.30;3.00;;;;;;;;;;5115385;28;20330;-68
2023/09/15 14:51:32;;;;;;;3.13;2.88;;;;;;;;;;5117408;28;20302;-66
2023/09/15 14:53:59;;;;;;;2.88;2.67;;;;;;;;;;5117711;28;20199;-66
2023/09/15 14:56:27;;;;;;;2.78;2.50;;;;;;;;;;5118206;28;20282;-66
2023/09/15 14:58:54;;;;;;;2.85;2.65;;;;;;;;;;5117792;28;20309;-67
2023/09/15 15:01:22;;;;;;;2.60;2.40;;;;;;;;;;5117612;28;20207;-66
2023/09/15 15:03:50;;;;;;;3.08;2.78;;;;;;;;;;5117991;28;20644;-67
2023/09/15 15:06:18;;;;;;;2.83;2.45;;;;;;;;;;5117887;28;20207;-66
2023/09/15 15:08:45;;;;;;;3.08;2.88;;;;;;;;;;5118266;28;20206;-66
2023/09/15 15:11:13;;;;;;;2.80;2.60;;;;;;;;;;5117764;28;20606;-66
2023/09/15 15:13:40;;;;;;;2.90;2.70;;;;;;;;;;5117646;28;20336;-66
2023/09/15 15:16:10;;;;;;;2.97;2.45;;;;;;;;;;5117302;28;20209;-66
2023/09/15 15:18:38;;;;;;;2.60;2.40;;;;;;;;;;5116868;28;20561;-66
2023/09/15 15:21:07;;;;;;;2.80;2.60;;;;;;;;;;5118593;28;20664;-66
2023/09/15 15:23:34;;;;;;;2.83;2.60;;;;;;;;;;5118036;28;20321;-67
2023/09/15 15:26:03;;;;;;;3.13;2.88;;;;;;;;;;5117854;28;20305;-67
2023/09/15 15:28:31;;;;;;;3.20;2.67;;;;;;;;;;5117786;28;20203;-67
2023/09/15 15:30:58;;;;;;;2.85;2.60;;;;;;;;;;5117285;28;20199;-66
2023/09/15 15:33:26;;;;;;;3.33;3.03;;;;;;;;;;5117913;28;20199;-66
2023/09/15 15:36:00;;;;;;;2.85;2.60;;;;;;;;;;5117871;28;20566;-66
2023/09/15 15:38:29;;;;;;;2.90;2.70;;;;;;;;;;5117514;28;20202;-66
2023/09/15 15:41:00;;;;;;;2.90;2.70;;;;;;;;;;5117448;28;20627;-67
2023/09/15 15:43:28;;;;;;;3.00;2.80;;;;;;;;;;5137176;27;20218;-67
2023/09/15 15:45:56;;;;;;;3.28;3.03;;;;;;;;;;5136607;27;20325;-66
2023/09/15 15:48:24;;;;;;;2.97;2.70;;;;;;;;;;5137574;27;20629;-67
2023/09/15 15:50:51;;;;;;;2.90;2.70;;;;;;;;;;5137591;27;20236;-67
2023/09/15 15:53:19;;;;;;;3.10;2.90;;;;;;;;;;5137249;27;20194;-67
2023/09/15 15:55:49;;;;;;;2.85;2.65;;;;;;;;;;5137416;27;20475;-67
2023/09/15 15:58:16;;;;;;;3.00;2.80;;;;;;;;;;5137789;27;20210;-67
2023/09/15 16:00:44;;;;;;;3.78;3.30;;;;;;;;;;5137009;27;20466;-67
2023/09/15 16:03:12;;;;;;;3.20;3.00;;;;;;;;;;5138395;27;20300;-67
2023/09/15 16:05:41;;;;;;;2.90;2.70;;;;;;;;;;5137310;27;20289;-67
2023/09/15 16:08:08;;;;;;;4.13;2.90;;;;;;;;;;5137085;27;20199;-67
2023/09/15 16:10:36;;;;;;;3.05;2.85;;;;;;;;;;5137562;27;20293;-67
2023/09/15 16:13:05;;;;;;;3.28;3.00;;;;;;;;;;5137332;27;20302;-67
2023/09/15 16:15:33;;;;;;;3.17;2.97;;;;;;;;;;5137195;27;20241;-67
2023/09/15 16:18:07;;;;;;;3.42;3.20;;;;;;;;;;5137780;27;20285;-67
2023/09/15 16:20:35;;;;;;;2.97;2.78;;;;;;;;;;5137244;27;20305;-67
2023/09/15 16:23:07;;;;;;;3.10;2.80;;;;;;;;;;5136924;27;20210;-67
2023/09/15 16:25:35;;;;;;;2.80;2.60;;;;;;;;;;5136077;27;20301;-67
2023/09/15 16:28:02;;;;;;;2.95;2.70;;;;;;;;;;5136246;27;20280;-67
2023/09/15 16:30:35;;;;;;;3.40;3.10;;;;;;;;;;5135969;27;20206;-67
2023/09/15 16:33:03;;;;;;;3.10;2.80;;;;;;;;;;5136012;27;20214;-66
2023/09/15 16:35:30;;;;;;;3.78;2.83;;;;;;;;;;5136544;27;20331;-66